CheckWX is a tool to help pilots better visualize weather data.  It is not intended as a substitute for an official pre-flight weather briefing.

16:20:53 UTC

KLCQ METAR
Lake City Gateway Airport
Lake City, Florida, USA
Current

26 mins ago

KLCQ 251555Z AUTO 28006KT 10SM CLR 12/04 A3016 RMK AO2
Observed
Jan-25 @ 15:55 UTC
Wind
  • 280° at 6 KTS
Visibility
10 SM
Flight Rules
VFR
Cloud Levels
  • Clear skies
Temperature
12°C / 54°F
Dewpoint
C / 39°F
Humidity
58%
Altimeter
30.16" Hg
Pressure
1021.32 hPa
Previous

46 mins ago

KLCQ 251535Z AUTO 32007KT 10SM CLR 11/04 A3017 RMK AO2
Observed
Jan-25 @ 15:35 UTC
Wind
  • 320° at 7 KTS
Visibility
10 SM
Flight Rules
VFR
Cloud Levels
  • Clear skies
Temperature
11°C / 52°F
Dewpoint
C / 39°F
Humidity
62%
Altimeter
30.17" Hg
Pressure
1021.72 hPa
Previous

1 hour ago

KLCQ 251515Z AUTO 31007KT 10SM CLR 11/04 A3017 RMK AO2 LTG DSNT E
Observed
Jan-25 @ 15:15 UTC
Wind
  • 310° at 7 KTS
Visibility
10 SM
Flight Rules
VFR
Cloud Levels
  • Clear skies
Temperature
11°C / 52°F
Dewpoint
C / 39°F
Humidity
62%
Altimeter
30.17" Hg
Pressure
1021.72 hPa